Time;durP1;ratioP1;P1;durP2;ratioP2;P2;SDS_P1;SDS_P2;PMS_P1;PMS_P2;Temp;Humidity;BMP_temperature;BMP_pressure;BME280_temperature;BME280_humidity;BME280_pressure;Samples;Min_cycle;Max_cycle;Signal;HPM_P1;HPM_P2
2023/05/19 01:11:27;;;;;;;;;;;;;;;;;;;;;
2023/05/19 01:25:16;;;;;;;;;;;;;;;;;;;;;
2023/05/19 02:15:40;;;;;;;12.00;4.90;;;12.30;99.90;;;;;;6035641;23;20293;-96
2023/05/19 06:30:32;;;;;;;10.45;5.35;;;12.20;99.90;;;;;;6131408;23;20009;-95
2023/05/19 06:33:41;;;;;;;;;;;;;;;;;;;;;
2023/05/19 06:49:38;;;;;;;;;;;;;;;;;;;;;
2023/05/19 06:56:23;;;;;;;;;;;;;;;;;;;;;
2023/05/19 06:59:41;;;;;;;;;;;;;;;;;;;;;
2023/05/19 07:06:06;;;;;;;;;;;;;;;;;;;;;
2023/05/19 07:08:52;;;;;;;12.35;5.72;;;12.80;99.90;;;;;;6292271;22;20022;-95
2023/05/19 07:12:06;;;;;;;;;;;;;;;;;;;;;
2023/05/19 07:15:36;;;;;;;17.17;5.68;;;12.90;99.90;;;;;;6291939;22;20043;-96
2023/05/19 07:18:04;;;;;;;12.07;5.47;;;13.00;99.90;;;;;;6311449;22;20027;-92
2023/05/19 07:20:32;;;;;;;14.55;6.15;;;13.00;99.90;;;;;;6280144;22;20023;-88
2023/05/19 07:22:58;;;;;;;12.40;5.25;;;13.10;99.90;;;;;;6282835;22;20083;-88
2023/05/19 07:25:25;;;;;;;13.98;5.18;;;13.10;99.90;;;;;;6283241;22;20023;-89
2023/05/19 07:27:53;;;;;;;9.98;5.63;;;13.20;99.90;;;;;;6283697;22;20006;-87
2023/05/19 07:30:19;;;;;;;11.93;5.68;;;13.20;99.90;;;;;;6259581;22;20010;-88
2023/05/19 07:32:45;;;;;;;10.98;4.88;;;13.30;99.90;;;;;;6285083;22;19995;-88
2023/05/19 07:54:04;;;;;;;7.68;4.70;;;13.80;99.90;;;;;;6324469;22;20037;-90
2023/05/19 07:56:29;;;;;;;9.02;4.43;;;13.90;99.90;;;;;;6283576;22;20003;-89
2023/05/19 07:58:55;;;;;;;10.52;4.75;;;14.00;99.90;;;;;;6276893;22;20031;-88
2023/05/19 08:01:21;;;;;;;10.45;4.57;;;14.10;99.90;;;;;;6284962;22;20007;-89
2023/05/19 08:04:21;;;;;;;;;;;;;;;;;;;;;
2023/05/19 08:30:29;;;;;;;8.80;3.83;;;14.80;99.90;;;;;;5959434;23;20084;-93
2023/05/19 09:49:01;;;;;;;7.25;2.20;;;16.80;99.90;;;;;;5923793;24;20114;-95
2023/05/19 10:30:25;;;;;;;;;;;;;;;;;;;;;
2023/05/19 10:43:43;;;;;;;;;;;;;;;;;;;;;
2023/05/19 11:04:13;;;;;;;;;;;;;;;;;;;;;
2023/05/19 11:07:13;;;;;;;;;;;;;;;;;;;;;
2023/05/19 11:10:39;;;;;;;7.35;2.10;;;18.40;99.90;;;;;;6035443;23;20059;-94
2023/05/19 11:26:53;;;;;;;10.43;2.38;;;18.80;99.90;;;;;;5954946;24;20043;-94
2023/05/19 11:50:42;;;;;;;;;;;;;;;;;;;;;
2023/05/19 11:57:16;;;;;;;;;;;;;;;;;;;;;
2023/05/19 12:00:54;;;;;;;;;;;;;;;;;;;;;
2023/05/19 12:20:55;;;;;;;;;;;;;;;;;;;;;
2023/05/19 12:55:15;;;;;;;6.47;2.33;;;20.70;91.70;;;;;;6170214;22;20027;-96
2023/05/19 12:57:43;;;;;;;8.65;2.60;;;20.80;91.60;;;;;;6226586;22;20020;-80
2023/05/19 13:00:20;;;;;;;7.32;2.17;;;20.80;91.50;;;;;;6276737;22;20460;-84
2023/05/19 13:03:00;;;;;;;6.95;2.00;;;20.80;91.00;;;;;;6276641;22;20374;-84
2023/05/19 13:05:42;;;;;;;8.35;2.35;;;20.90;90.80;;;;;;6277120;22;20031;-84
2023/05/19 13:08:13;;;;;;;8.95;2.00;;;21.00;90.60;;;;;;6278166;22;19996;-84
2023/05/19 13:10:43;;;;;;;8.02;2.78;;;21.00;90.20;;;;;;6277117;22;20056;-85
2023/05/19 13:13:09;;;;;;;;;;;21.10;90.10;;;;;;6277662;22;20000;-84
2023/05/19 13:15:43;;;;;;;8.60;2.17;;;21.20;90.00;;;;;;6276681;22;19918;-85
2023/05/19 13:18:14;;;;;;;9.15;2.22;;;21.20;89.80;;;;;;6278390;22;20000;-84
2023/05/19 13:20:42;;;;;;;8.73;2.60;;;21.30;90.10;;;;;;6278028;22;20038;-84
2023/05/19 13:23:11;;;;;;;8.63;2.38;;;21.30;90.30;;;;;;6276989;22;20003;-85
2023/05/19 13:25:37;;;;;;;6.82;2.47;;;21.40;89.50;;;;;;6276799;22;20000;-86
2023/05/19 13:28:06;;;;;;;5.50;1.95;;;21.40;89.00;;;;;;6251705;22;20429;-85
2023/05/19 13:30:33;;;;;;;7.78;2.30;;;21.50;88.90;;;;;;6279063;22;20000;-84
2023/05/19 13:32:59;;;;;;;6.38;2.40;;;21.50;88.40;;;;;;6275563;22;20049;-84
2023/05/19 13:35:25;;;;;;;7.32;2.33;;;21.60;86.40;;;;;;6250229;22;20016;-84
2023/05/19 13:37:51;;;;;;;6.00;2.42;;;21.60;86.50;;;;;;6275141;22;20376;-84
2023/05/19 13:40:26;;;;;;;;;;;;;;;;;;;;;
2023/05/19 13:42:54;;;;;;;7.50;2.00;;;21.70;85.60;;;;;;6278884;22;20391;-85
2023/05/19 13:45:20;;;;;;;6.97;2.40;;;21.80;86.10;;;;;;6275341;22;20071;-84
2023/05/19 13:47:46;;;;;;;7.47;2.28;;;21.80;86.90;;;;;;6274955;22;20010;-84
2023/05/19 13:50:12;;;;;;;6.68;2.58;;;21.90;86.40;;;;;;6249610;22;20057;-84
2023/05/19 13:52:38;;;;;;;6.90;1.95;;;21.90;85.50;;;;;;6276282;22;20033;-83
2023/05/19 13:55:05;;;;;;;14.30;2.58;;;21.90;84.70;;;;;;6249958;22;20008;-83
2023/05/19 13:57:31;;;;;;;4.78;2.08;;;22.00;84.30;;;;;;6295129;22;20045;-83
2023/05/19 13:59:57;;;;;;;5.53;2.00;;;22.00;83.50;;;;;;6255927;22;20010;-83
2023/05/19 14:02:23;;;;;;;6.63;2.13;;;22.10;83.50;;;;;;6255427;22;20060;-83
2023/05/19 14:04:49;;;;;;;7.63;2.60;;;22.10;82.00;;;;;;6256546;22;20043;-83
2023/05/19 14:07:15;;;;;;;11.38;2.58;;;22.20;81.20;;;;;;6286936;22;20041;-82
2023/05/19 14:09:41;;;;;;;8.70;2.05;;;22.20;81.10;;;;;;6255381;22;20413;-83
2023/05/19 14:12:09;;;;;;;4.90;1.95;;;22.20;80.90;;;;;;6254525;22;20081;-83
2023/05/19 14:14:34;;;;;;;6.63;2.05;;;22.30;80.40;;;;;;6280437;22;20007;-84
2023/05/19 14:17:00;;;;;;;7.32;2.25;;;22.30;80.10;;;;;;6228911;22;20057;-84
2023/05/19 14:19:28;;;;;;;6.80;2.10;;;22.30;79.90;;;;;;6254250;22;20074;-83
2023/05/19 14:21:57;;;;;;;6.03;2.08;;;22.40;79.70;;;;;;6280398;22;20003;-84
2023/05/19 14:24:23;;;;;;;6.70;2.10;;;22.40;79.10;;;;;;6280246;22;20010;-84
2023/05/19 14:26:49;;;;;;;5.93;2.00;;;22.40;78.30;;;;;;6254114;22;20003;-85
2023/05/19 14:29:15;;;;;;;29.67;3.03;;;22.40;78.20;;;;;;6280125;22;20075;-84
2023/05/19 14:31:41;;;;;;;6.20;2.10;;;22.40;78.20;;;;;;6254198;22;20038;-83
2023/05/19 14:34:06;;;;;;;9.05;2.10;;;22.40;77.80;;;;;;6254051;22;20000;-84
2023/05/19 14:36:33;;;;;;;10.88;2.53;;;22.40;77.00;;;;;;6280128;22;20056;-83
2023/05/19 14:39:00;;;;;;;6.85;2.28;;;22.50;76.40;;;;;;6254222;22;20006;-83
2023/05/19 14:41:26;;;;;;;6.80;2.35;;;22.50;76.70;;;;;;6280063;22;20410;-83
2023/05/19 14:43:51;;;;;;;4.90;1.77;;;22.50;76.00;;;;;;6262219;22;20006;-85
2023/05/19 14:46:17;;;;;;;5.80;2.08;;;22.60;75.70;;;;;;6252073;22;20035;-85
2023/05/19 14:48:45;;;;;;;7.47;2.55;;;22.60;75.70;;;;;;6228335;22;20356;-85
2023/05/19 14:51:11;;;;;;;7.30;2.10;;;22.60;75.70;;;;;;6231078;22;20007;-82
2023/05/19 14:53:37;;;;;;;9.82;2.20;;;22.60;75.70;;;;;;6280189;22;20005;-83
2023/05/19 14:56:03;;;;;;;9.57;2.58;;;22.60;75.10;;;;;;6278592;22;20306;-84
2023/05/19 14:58:28;;;;;;;8.30;2.17;;;22.60;74.60;;;;;;6255689;22;20301;-85
2023/05/19 15:00:57;;;;;;;5.43;1.85;;;22.70;74.60;;;;;;6254887;22;20010;-84
2023/05/19 15:12:11;;;;;;;7.18;2.33;;;22.70;72.70;;;;;;6268603;22;20004;-91
2023/05/19 15:14:52;;;;;;;5.50;1.90;;;22.70;72.70;;;;;;6303159;22;20059;-93
2023/05/19 15:17:17;;;;;;;;;;;22.70;72.70;;;;;;6254939;22;20026;-93
2023/05/19 15:19:57;;;;;;;5.03;1.90;;;22.80;73.30;;;;;;6298402;22;19899;-94
2023/05/19 15:22:30;;;;;;;9.80;2.25;;;22.80;73.70;;;;;;6268770;22;20000;-92
2023/05/19 15:25:08;;;;;;;;;;;;;;;;;;;;;
2023/05/19 15:32:10;;;;;;;8.60;2.75;;;22.80;72.60;;;;;;6285847;22;20004;-96
2023/05/19 15:35:24;;;;;;;8.27;2.50;;;22.80;71.50;;;;;;6272163;22;20007;-96
2023/05/19 15:41:40;;;;;;;;;;;;;;;;;;;;;
2023/05/19 15:44:37;;;;;;;;;;;;;;;;;;;;;
2023/05/19 16:00:54;;;;;;;7.00;2.10;;;22.90;71.10;;;;;;6293009;22;20019;-87
2023/05/19 16:03:21;;;;;;;5.93;2.28;;;22.90;71.70;;;;;;6259117;22;20099;-86
2023/05/19 16:05:47;;;;;;;9.75;2.40;;;23.00;71.40;;;;;;6282342;22;20015;-86
2023/05/19 16:08:27;;;;;;;4.68;2.00;;;23.10;71.70;;;;;;6257536;22;20065;-89
2023/05/19 16:10:54;;;;;;;4.38;2.20;;;23.10;70.80;;;;;;6262400;22;20004;-87
2023/05/19 16:13:19;;;;;;;10.10;2.40;;;23.10;70.10;;;;;;6284438;22;20007;-88
2023/05/19 16:15:45;;;;;;;5.55;2.20;;;23.20;70.60;;;;;;6260346;22;20064;-89
2023/05/19 16:18:11;;;;;;;6.55;1.90;;;23.20;71.60;;;;;;6311278;22;20006;-90
2023/05/19 16:20:37;;;;;;;8.30;2.30;;;23.30;71.90;;;;;;6285244;22;20484;-88
2023/05/19 16:23:03;;;;;;;7.78;2.40;;;23.30;72.40;;;;;;6311184;22;20321;-89
2023/05/19 16:25:29;;;;;;;11.20;2.30;;;23.40;72.30;;;;;;6312312;22;20107;-90
2023/05/19 16:27:55;;;;;;;10.70;2.30;;;23.40;72.00;;;;;;6312459;22;19999;-85
2023/05/19 16:30:21;;;;;;;4.93;2.33;;;23.30;72.00;;;;;;6314206;22;20013;-90
2023/05/19 16:32:47;;;;;;;6.55;2.10;;;23.30;71.30;;;;;;6285796;22;20421;-88
2023/05/19 16:35:13;;;;;;;5.78;1.88;;;23.40;71.30;;;;;;6263929;22;20007;-86
2023/05/19 16:37:39;;;;;;;8.02;2.78;;;23.40;71.10;;;;;;6282897;22;20009;-86
2023/05/19 16:40:05;;;;;;;8.80;3.83;;;23.50;70.90;;;;;;6309253;22;20425;-87
2023/05/19 16:42:31;;;;;;;16.42;10.57;;;23.50;70.30;;;;;;6283188;22;20003;-85
2023/05/19 16:44:57;;;;;;;19.23;12.98;;;23.60;69.90;;;;;;6256542;22;20011;-85
2023/05/19 16:47:22;;;;;;;11.75;4.50;;;23.60;70.00;;;;;;6263100;22;20428;-87
2023/05/19 16:49:48;;;;;;;9.23;4.93;;;23.80;70.40;;;;;;6310071;22;20004;-86
2023/05/19 16:52:14;;;;;;;10.75;5.45;;;23.80;69.90;;;;;;6255922;22;20459;-86
2023/05/19 16:54:40;;;;;;;31.27;22.20;;;23.80;69.80;;;;;;6281906;22;20102;-87
2023/05/19 16:57:08;;;;;;;10.80;5.65;;;23.70;69.70;;;;;;6309749;22;20026;-87
2023/05/19 16:59:34;;;;;;;9.90;5.75;;;23.60;68.80;;;;;;6257111;22;20028;-85
2023/05/19 17:02:00;;;;;;;9.35;4.85;;;23.50;68.90;;;;;;6282422;22;20086;-84
2023/05/19 17:04:25;;;;;;;7.78;4.80;;;23.40;69.00;;;;;;6285109;22;20006;-86
2023/05/19 17:06:51;;;;;;;5.28;2.50;;;23.40;68.70;;;;;;6281138;22;20007;-85
2023/05/19 17:09:23;;;;;;;6.60;2.08;;;23.40;68.50;;;;;;6281918;22;20013;-88
2023/05/19 17:11:50;;;;;;;7.18;2.10;;;23.40;67.60;;;;;;6281857;22;20007;-86
2023/05/19 17:14:15;;;;;;;6.32;2.00;;;23.40;67.10;;;;;;6281487;22;20056;-87
2023/05/19 17:16:41;;;;;;;7.82;2.55;;;23.40;66.90;;;;;;6284369;22;20094;-89
2023/05/19 17:19:07;;;;;;;8.98;4.72;;;23.40;67.40;;;;;;6308816;22;20015;-91
2023/05/19 17:22:25;;;;;;;;;;;;;;;;;;;;;
2023/05/19 17:25:50;;;;;;;;;;;;;;;;;;;;;
2023/05/19 17:33:00;;;;;;;;;;;;;;;;;;;;;
2023/05/19 17:46:33;;;;;;;6.88;1.90;;;22.70;69.00;;;;;;5948301;23;20054;-82
2023/05/19 17:52:47;;;;;;;;;;;;;;;;;;;;;
2023/05/19 17:55:54;;;;;;;10.15;3.00;;;22.30;68.50;;;;;;6097965;23;20048;-94
2023/05/19 18:02:37;;;;;;;;;;;;;;;;;;;;;
2023/05/19 18:05:21;;;;;;;6.20;1.90;;;22.10;70.60;;;;;;6193116;23;20412;-94
2023/05/19 18:08:44;;;;;;;;;;;;;;;;;;;;;
2023/05/19 18:12:00;;;;;;;;;;;;;;;;;;;;;
2023/05/19 18:15:05;;;;;;;;;;;;;;;;;;;;;
2023/05/19 18:18:22;;;;;;;;;;;;;;;;;;;;;
2023/05/19 18:27:54;;;;;;;;;;;;;;;;;;;;;
2023/05/19 18:31:24;;;;;;;;;;;;;;;;;;;;;
2023/05/19 18:35:01;;;;;;;;;;;;;;;;;;;;;
2023/05/19 18:38:28;;;;;;;5.13;1.70;;;21.30;72.40;;;;;;6100787;23;20045;-93
2023/05/19 18:41:36;;;;;;;;;;;;;;;;;;;;;
2023/05/19 18:44:13;;;;;;;6.32;1.55;;;21.20;72.50;;;;;;6291121;22;20031;-93
2023/05/19 18:53:32;;;;;;;3.60;1.75;;;21.00;72.40;;;;;;6296267;22;20008;-93
2023/05/19 18:56:14;;;;;;;7.80;1.90;;;21.00;72.30;;;;;;6283285;22;20003;-92
2023/05/19 19:01:43;;;;;;;6.10;1.77;;;20.90;72.60;;;;;;6291474;22;20085;-92
2023/05/19 19:04:49;;;;;;;;;;;;;;;;;;;;;
2023/05/19 19:07:30;;;;;;;;;;;;;;;;;;;;;
2023/05/19 19:18:40;;;;;;;5.55;2.00;;;20.60;73.50;;;;;;6284669;22;20024;-93
2023/05/19 19:21:24;;;;;;;;;;;;;;;;;;;;;
2023/05/19 19:37:30;;;;;;;;;;;;;;;;;;;;;
2023/05/19 19:50:08;;;;;;;8.80;1.90;;;20.00;74.20;;;;;;6222643;22;20031;-93
2023/05/19 19:53:15;;;;;;;5.10;1.83;;;20.00;74.30;;;;;;6271193;22;19992;-93
2023/05/19 19:58:51;;;;;;;3.08;1.67;;;19.80;74.80;;;;;;6282536;22;20086;-91
2023/05/19 20:01:45;;;;;;;;;;;;;;;;;;;;;
2023/05/19 20:04:47;;;;;;;;;;;;;;;;;;;;;
2023/05/19 20:07:27;;;;;;;5.55;2.05;;;19.70;75.20;;;;;;6254554;22;20087;-93
2023/05/19 20:10:16;;;;;;;5.13;1.85;;;19.60;75.20;;;;;;6230412;22;20008;-92
2023/05/19 20:13:17;;;;;;;;;;;;;;;;;;;;;
2023/05/19 20:16:10;;;;;;;5.60;2.05;;;19.60;75.50;;;;;;6216757;23;20071;-93
2023/05/19 20:19:28;;;;;;;;;;;;;;;;;;;;;
2023/05/19 20:22:44;;;;;;;;;;;;;;;;;;;;;
2023/05/19 20:25:39;;;;;;;;;;;;;;;;;;;;;
2023/05/19 20:28:40;;;;;;;6.25;1.70;;;19.40;75.60;;;;;;6229483;23;20075;-93
2023/05/19 20:34:56;;;;;;;3.60;1.95;;;19.30;76.30;;;;;;6240217;23;20032;-93
2023/05/19 20:43:39;;;;;;;;;;;;;;;;;;;;;
2023/05/19 20:47:03;;;;;;;;;;;;;;;;;;;;;
2023/05/19 20:49:53;;;;;;;5.68;2.08;;;19.10;76.80;;;;;;6230109;23;20075;-94
2023/05/19 20:56:09;;;;;;;;;;;;;;;;;;;;;
